Time;durP1;ratioP1;P1;durP2;ratioP2;P2;SDS_P1;SDS_P2;PMS_P1;PMS_P2;Temp;Humidity;BMP_temperature;BMP_pressure;BME280_temperature;BME280_humidity;BME280_pressure;Samples;Min_cycle;Max_cycle;Signal;HPM_P1;HPM_P2
2022/12/14 00:00:56;;;;;;;26.38;12.52;;;-3.10;99.90;;;;;;5054654;28;20036;-35
2022/12/14 00:03:22;;;;;;;27.17;12.13;;;-3.10;99.90;;;;;;5032655;28;20033;-35
2022/12/14 00:05:48;;;;;;;24.48;11.75;;;-3.10;99.90;;;;;;5042053;28;20033;-35
2022/12/14 00:08:15;;;;;;;29.45;13.38;;;-3.10;99.90;;;;;;5034968;28;20095;-36
2022/12/14 00:10:41;;;;;;;26.98;12.10;;;-3.10;99.90;;;;;;5044804;28;20041;-36
2022/12/14 00:13:08;;;;;;;26.95;12.15;;;-3.10;99.90;;;;;;5046951;28;20041;-35
2022/12/14 00:15:36;;;;;;;26.75;11.10;;;-3.10;99.90;;;;;;5047583;28;20037;-35
2022/12/14 00:18:02;;;;;;;24.13;11.93;;;-3.10;99.90;;;;;;5043783;28;20486;-35
2022/12/14 00:20:28;;;;;;;26.23;13.13;;;-3.10;99.90;;;;;;5041793;28;20057;-37
2022/12/14 00:22:55;;;;;;;24.77;11.98;;;-3.10;99.90;;;;;;5039755;28;20081;-36
2022/12/14 00:25:21;;;;;;;26.17;10.57;;;-3.10;99.90;;;;;;5052093;28;20032;-35
2022/12/14 00:27:47;;;;;;;24.52;11.45;;;-3.10;99.90;;;;;;5023728;28;20098;-37
2022/12/14 00:30:16;;;;;;;26.80;12.27;;;-3.10;99.90;;;;;;5027283;28;20466;-36
2022/12/14 00:32:42;;;;;;;23.88;11.30;;;-3.10;99.90;;;;;;5018816;28;20506;-35
2022/12/14 00:35:10;;;;;;;21.70;9.93;;;-3.10;99.90;;;;;;5027154;28;20041;-34
2022/12/14 00:37:36;;;;;;;28.42;12.75;;;-3.10;99.90;;;;;;5024169;28;20045;-36
2022/12/14 00:40:05;;;;;;;23.10;10.98;;;-3.10;99.90;;;;;;5025545;28;20041;-35
2022/12/14 00:42:31;;;;;;;23.67;11.27;;;-3.20;99.90;;;;;;5024044;28;20105;-35
2022/12/14 00:44:57;;;;;;;22.83;11.40;;;-3.20;99.90;;;;;;5023523;28;20034;-36
2022/12/14 00:47:23;;;;;;;25.63;10.68;;;-3.20;99.90;;;;;;5013247;28;20095;-37
2022/12/14 00:49:48;;;;;;;20.85;9.95;;;-3.20;99.90;;;;;;5021572;28;20037;-35
2022/12/14 00:52:14;;;;;;;23.85;11.43;;;-3.20;99.90;;;;;;5027607;28;20049;-35
2022/12/14 00:54:40;;;;;;;21.80;11.52;;;-3.30;99.90;;;;;;5025855;28;20033;-35
2022/12/14 00:57:05;;;;;;;20.80;10.32;;;-3.30;99.90;;;;;;5022980;28;20491;-34
2022/12/14 00:59:31;;;;;;;21.90;10.88;;;-3.30;99.90;;;;;;5024890;28;20034;-34
2022/12/14 01:01:56;;;;;;;25.92;11.77;;;-3.30;99.90;;;;;;5023082;28;20033;-35
2022/12/14 01:04:23;;;;;;;23.63;11.07;;;-3.40;99.90;;;;;;5024172;28;20069;-35
2022/12/14 01:06:51;;;;;;;20.77;9.43;;;-3.40;99.90;;;;;;5026667;28;20056;-36
2022/12/14 01:09:19;;;;;;;25.17;10.13;;;-3.40;99.90;;;;;;5010299;28;20045;-35
2022/12/14 01:11:45;;;;;;;19.95;9.20;;;-3.40;99.90;;;;;;5021181;28;20065;-35
2022/12/14 01:14:13;;;;;;;26.85;10.77;;;-3.50;99.90;;;;;;5025671;28;20056;-34
2022/12/14 01:16:39;;;;;;;19.88;9.75;;;-3.50;99.90;;;;;;5025695;28;20490;-34
2022/12/14 01:19:05;;;;;;;20.70;9.43;;;-3.50;99.90;;;;;;5027315;28;20073;-34
2022/12/14 01:21:32;;;;;;;18.98;8.88;;;-3.60;99.90;;;;;;5021312;28;20509;-34
2022/12/14 01:24:03;;;;;;;20.17;9.48;;;-3.60;99.90;;;;;;5026135;28;20037;-34
2022/12/14 01:26:30;;;;;;;20.80;9.52;;;-3.60;99.90;;;;;;5023881;28;20102;-35
2022/12/14 01:28:58;;;;;;;21.95;10.00;;;-3.70;99.90;;;;;;5025847;28;20084;-35
2022/12/14 01:31:29;;;;;;;18.95;8.73;;;-3.70;99.90;;;;;;5026640;28;20033;-34
2022/12/14 01:33:55;;;;;;;17.33;8.90;;;-3.80;99.90;;;;;;5023131;28;20042;-35
2022/12/14 01:36:24;;;;;;;20.60;9.38;;;-3.80;99.90;;;;;;5017417;28;20860;-37
2022/12/14 01:38:58;;;;;;;19.50;8.80;;;-3.90;99.90;;;;;;5024257;28;20034;-36
2022/12/14 01:41:30;;;;;;;18.15;8.60;;;-3.90;99.90;;;;;;5025957;28;20506;-36
2022/12/14 01:43:59;;;;;;;26.05;10.05;;;-4.00;99.90;;;;;;5025305;28;20588;-36
2022/12/14 01:46:33;;;;;;;16.23;8.13;;;-4.00;99.90;;;;;;5025850;28;20037;-35
2022/12/14 01:49:22;;;;;;;22.52;9.70;;;-4.00;99.90;;;;;;5025464;28;20045;-37
2022/12/14 01:52:06;;;;;;;21.27;9.57;;;-4.00;99.90;;;;;;5006568;28;20041;-35
2022/12/14 01:54:36;;;;;;;19.80;8.65;;;-4.00;99.90;;;;;;5025790;28;20037;-35
2022/12/14 01:57:02;;;;;;;21.60;9.13;;;-4.10;99.90;;;;;;5024473;28;20447;-37
2022/12/14 01:59:33;;;;;;;18.23;8.13;;;-4.10;99.90;;;;;;5023767;28;21735;-37
2022/12/14 02:02:01;;;;;;;19.48;8.57;;;-4.10;99.90;;;;;;5024434;28;20113;-36
2022/12/14 02:04:27;;;;;;;21.98;9.68;;;-4.10;99.90;;;;;;5024183;28;20048;-35
2022/12/14 02:06:54;;;;;;;23.05;10.00;;;-4.10;99.90;;;;;;5024008;28;20056;-39
2022/12/14 02:09:26;;;;;;;22.73;9.82;;;-4.10;99.90;;;;;;5023782;28;20928;-35
2022/12/14 02:12:11;;;;;;;22.48;9.80;;;-4.10;99.90;;;;;;5024919;28;20071;-35
2022/12/14 02:14:37;;;;;;;22.33;8.77;;;-4.10;99.90;;;;;;5022779;28;20037;-35
2022/12/14 02:17:05;;;;;;;27.13;9.35;;;-4.10;99.90;;;;;;5022130;28;20046;-36
2022/12/14 02:19:31;;;;;;;18.88;9.18;;;-4.10;99.90;;;;;;5025861;28;20103;-36
2022/12/14 02:22:18;;;;;;;22.23;9.15;;;-4.00;99.90;;;;;;5025424;28;20037;-40
2022/12/14 02:25:06;;;;;;;19.02;8.65;;;-4.10;99.90;;;;;;5026109;28;20608;-37
2022/12/14 02:28:02;;;;;;;18.20;8.30;;;-4.00;99.90;;;;;;5024904;28;20060;-35
2022/12/14 02:30:35;;;;;;;19.90;8.15;;;-4.00;99.90;;;;;;5022694;28;20398;-36
2022/12/14 02:33:16;;;;;;;18.52;8.38;;;-4.00;99.90;;;;;;5025257;28;20523;-36
2022/12/14 02:35:49;;;;;;;20.13;9.75;;;-4.00;99.90;;;;;;5025673;28;20056;-35
2022/12/14 02:38:49;;;;;;;20.88;9.27;;;-4.00;99.90;;;;;;5026597;28;20045;-35
2022/12/14 02:41:43;;;;;;;22.00;8.93;;;-4.00;99.90;;;;;;5024493;28;20529;-36
2022/12/14 02:44:32;;;;;;;22.08;9.68;;;-4.00;99.90;;;;;;5023836;28;20053;-35
2022/12/14 02:47:16;;;;;;;21.70;8.95;;;-4.00;99.90;;;;;;5024021;28;20037;-36
2022/12/14 02:50:05;;;;;;;19.48;8.45;;;-4.10;99.90;;;;;;5024361;28;20045;-35
2022/12/14 02:52:37;;;;;;;18.98;8.48;;;-4.10;99.90;;;;;;5026348;28;20507;-35
2022/12/14 02:55:10;;;;;;;17.52;9.10;;;-4.10;99.90;;;;;;5023891;28;20485;-37
2022/12/14 02:57:44;;;;;;;16.80;7.43;;;-4.10;99.90;;;;;;5022150;28;20042;-36
2022/12/14 03:00:10;;;;;;;19.35;8.60;;;-4.10;99.90;;;;;;5024026;28;20502;-37
2022/12/14 03:02:39;;;;;;;20.55;8.48;;;-4.10;99.90;;;;;;5024167;28;20068;-35
2022/12/14 03:05:05;;;;;;;19.80;7.93;;;-4.10;99.90;;;;;;5022668;28;20029;-35
2022/12/14 03:07:35;;;;;;;21.25;9.38;;;-4.20;99.90;;;;;;5023255;28;20048;-35
2022/12/14 03:10:05;;;;;;;21.27;9.68;;;-4.20;99.90;;;;;;5018669;28;20044;-37
2022/12/14 03:12:31;;;;;;;18.38;7.85;;;-4.20;99.90;;;;;;5023219;28;20049;-35
2022/12/14 03:14:59;;;;;;;18.80;7.65;;;-4.20;99.90;;;;;;5026363;28;20478;-35
2022/12/14 03:17:28;;;;;;;18.83;8.05;;;-4.20;99.90;;;;;;5023183;28;20052;-36
2022/12/14 03:20:05;;;;;;;20.92;8.43;;;-4.30;99.90;;;;;;5021219;28;20486;-36
2022/12/14 03:22:46;;;;;;;18.38;8.60;;;-4.30;99.90;;;;;;5006375;28;20041;-36
2022/12/14 03:25:15;;;;;;;19.48;9.00;;;-4.40;99.90;;;;;;5008240;28;20483;-36
2022/12/14 03:27:50;;;;;;;15.52;7.25;;;-4.40;99.90;;;;;;5040542;28;20482;-35
2022/12/14 03:30:17;;;;;;;18.17;8.68;;;-4.50;99.90;;;;;;5032679;28;20055;-36
2022/12/14 03:32:52;;;;;;;21.42;7.70;;;-4.50;99.90;;;;;;5030793;28;20038;-37
2022/12/14 03:35:23;;;;;;;20.35;9.15;;;-4.60;99.90;;;;;;5044228;28;20064;-35
2022/12/14 03:38:17;;;;;;;18.65;8.45;;;-4.60;99.90;;;;;;5045051;28;20033;-35
2022/12/14 03:41:01;;;;;;;19.23;8.90;;;-4.60;99.90;;;;;;5043076;28;20112;-37
2022/12/14 03:44:00;;;;;;;19.70;8.27;;;-4.60;99.90;;;;;;5032227;28;21367;-35
2022/12/14 03:46:59;;;;;;;21.48;9.45;;;-4.60;99.90;;;;;;5034461;28;20139;-37
2022/12/14 03:49:36;;;;;;;16.63;7.85;;;-4.60;99.90;;;;;;5035002;28;20037;-38
2022/12/14 03:52:05;;;;;;;18.08;7.65;;;-4.70;99.90;;;;;;5042017;28;20087;-36
2022/12/14 03:54:49;;;;;;;18.80;7.93;;;-4.70;99.90;;;;;;5034637;28;20068;-36
2022/12/14 03:57:39;;;;;;;19.73;8.10;;;-4.80;99.90;;;;;;5036556;28;20045;-36
2022/12/14 04:00:10;;;;;;;20.63;8.95;;;-4.80;99.90;;;;;;5046560;28;20090;-38
2022/12/14 04:02:48;;;;;;;22.38;9.55;;;-4.90;99.90;;;;;;5042199;28;20037;-37
2022/12/14 04:05:23;;;;;;;18.20;8.65;;;-4.90;99.90;;;;;;5039589;28;20064;-35
2022/12/14 04:08:24;;;;;;;18.63;8.75;;;-4.90;99.90;;;;;;5048883;28;20037;-34
2022/12/14 04:19:27;;;;;;;19.35;8.05;;;-5.10;99.90;;;;;;5045377;28;20535;-36
2022/12/14 04:22:01;;;;;;;18.88;7.22;;;-5.10;99.90;;;;;;5043027;28;20092;-35
2022/12/14 04:27:50;;;;;;;14.60;7.90;;;-5.20;99.90;;;;;;5022943;28;20053;-36
2022/12/14 04:30:16;;;;;;;18.30;8.55;;;-5.20;99.90;;;;;;5025215;28;20429;-35
2022/12/14 04:32:51;;;;;;;18.08;8.00;;;-5.20;99.90;;;;;;5026716;28;20919;-35
2022/12/14 04:35:27;;;;;;;21.42;8.52;;;-5.30;99.90;;;;;;5024860;28;20127;-34
2022/12/14 04:38:18;;;;;;;22.20;9.55;;;-5.20;99.90;;;;;;5025190;28;20049;-35
2022/12/14 04:40:43;;;;;;;17.73;7.75;;;-5.30;99.90;;;;;;5014702;28;20161;-35
2022/12/14 04:43:15;;;;;;;20.40;9.82;;;-5.30;99.90;;;;;;5022572;28;20597;-34
2022/12/14 04:45:56;;;;;;;21.05;9.23;;;-5.30;99.90;;;;;;5009097;28;20071;-34
2022/12/14 04:48:33;;;;;;;19.38;8.88;;;-5.30;99.90;;;;;;5029748;28;20041;-36
2022/12/14 04:51:30;;;;;;;15.23;6.90;;;-5.30;99.90;;;;;;5022278;28;20042;-35
2022/12/14 04:54:04;;;;;;;18.75;7.82;;;-5.40;99.90;;;;;;5023755;28;20049;-35
2022/12/14 04:56:33;;;;;;;18.02;8.15;;;;;;;;;;5025482;28;20520;-34
2022/12/14 04:58:59;;;;;;;17.55;7.97;;;-5.40;99.90;;;;;;5020016;28;20124;-36
2022/12/14 05:01:37;;;;;;;18.30;7.97;;;-5.40;99.90;;;;;;5019808;28;20080;-34
2022/12/14 05:04:16;;;;;;;16.35;7.13;;;-5.40;99.90;;;;;;5026225;28;20037;-36
2022/12/14 05:06:47;;;;;;;16.40;7.75;;;-5.40;99.90;;;;;;5024480;28;20056;-36
2022/12/14 05:09:24;;;;;;;20.15;8.63;;;-5.50;99.90;;;;;;5019878;28;20041;-36
2022/12/14 05:12:14;;;;;;;20.40;8.40;;;-5.50;99.90;;;;;;4993575;28;20045;-34
2022/12/14 05:14:55;;;;;;;15.18;6.95;;;-5.40;99.90;;;;;;5023319;28;20076;-35
2022/12/14 05:17:21;;;;;;;22.55;7.88;;;-5.40;99.90;;;;;;5024360;28;20049;-36
2022/12/14 05:19:48;;;;;;;15.95;7.13;;;-5.40;99.90;;;;;;5023363;28;20041;-36
2022/12/14 05:22:15;;;;;;;16.33;7.32;;;-5.40;99.90;;;;;;5025357;28;20029;-34
2022/12/14 05:24:40;;;;;;;23.13;9.43;;;-5.30;99.90;;;;;;5022939;28;20049;-35
2022/12/14 05:27:06;;;;;;;20.77;7.97;;;-5.30;99.90;;;;;;5021900;28;20058;-37
2022/12/14 05:29:32;;;;;;;19.85;8.18;;;-5.30;99.90;;;;;;5027774;28;20053;-35
2022/12/14 05:31:58;;;;;;;17.25;7.75;;;-5.40;99.90;;;;;;5024615;28;20045;-35
2022/12/14 05:34:24;;;;;;;16.75;7.32;;;-5.40;99.90;;;;;;5025221;28;20076;-35
2022/12/14 05:36:50;;;;;;;18.20;7.43;;;-5.40;99.90;;;;;;5025124;28;20084;-35
2022/12/14 05:39:15;;;;;;;15.57;7.32;;;-5.40;99.90;;;;;;5023944;28;20037;-36
2022/12/14 05:41:41;;;;;;;17.35;7.65;;;-5.40;99.90;;;;;;5021834;28;20033;-36
2022/12/14 05:44:07;;;;;;;15.88;7.55;;;-5.50;99.90;;;;;;5029574;28;20037;-53
2022/12/14 05:46:33;;;;;;;16.23;7.50;;;-5.50;99.90;;;;;;5026501;28;20037;-34
2022/12/14 05:48:59;;;;;;;15.93;7.32;;;-5.50;99.90;;;;;;5029529;28;20123;-35
2022/12/14 05:51:24;;;;;;;18.35;7.50;;;-5.50;99.90;;;;;;5026675;28;20037;-35
2022/12/14 05:53:50;;;;;;;18.65;7.97;;;-5.60;99.90;;;;;;5027451;28;20481;-36
2022/12/14 05:56:16;;;;;;;15.65;6.72;;;-5.60;99.90;;;;;;5020799;28;20628;-35
2022/12/14 05:58:42;;;;;;;17.15;6.60;;;-5.60;99.90;;;;;;5022803;28;20045;-36
2022/12/14 06:01:10;;;;;;;17.85;7.80;;;-5.60;99.90;;;;;;5024748;28;20498;-35
2022/12/14 06:03:36;;;;;;;16.75;6.60;;;-5.70;99.90;;;;;;5023331;28;20501;-36
2022/12/14 06:06:08;;;;;;;19.25;7.50;;;-5.70;99.90;;;;;;5028659;28;20069;-36
2022/12/14 06:08:38;;;;;;;19.75;7.85;;;-5.70;99.90;;;;;;5023758;28;20045;-35
2022/12/14 06:11:13;;;;;;;17.45;8.07;;;-5.70;99.90;;;;;;5024962;28;21113;-36
2022/12/14 06:13:40;;;;;;;16.52;6.55;;;-5.70;99.90;;;;;;5024508;28;20045;-35
2022/12/14 06:16:07;;;;;;;15.07;7.05;;;-5.70;99.90;;;;;;5024220;28;20045;-38
2022/12/14 06:18:33;;;;;;;15.38;6.60;;;-5.70;99.90;;;;;;5026941;28;20077;-37
2022/12/14 06:20:59;;;;;;;19.88;7.97;;;-5.70;99.90;;;;;;5027176;28;20104;-35
2022/12/14 06:23:25;;;;;;;21.95;8.73;;;-5.70;99.90;;;;;;5029511;28;20091;-36
2022/12/14 06:25:54;;;;;;;18.20;7.45;;;-5.70;99.90;;;;;;5025949;28;20045;-36
2022/12/14 06:28:21;;;;;;;16.33;6.82;;;-5.70;99.90;;;;;;5023944;28;20103;-36
2022/12/14 06:30:47;;;;;;;24.15;8.93;;;-5.60;99.90;;;;;;5028713;28;20041;-36
2022/12/14 06:33:12;;;;;;;22.65;9.07;;;-5.60;99.90;;;;;;5027716;28;20044;-35
2022/12/14 06:35:43;;;;;;;17.55;7.80;;;-5.60;99.90;;;;;;5010291;28;20029;-36
2022/12/14 06:38:09;;;;;;;21.25;8.82;;;-5.60;99.90;;;;;;5007952;28;20510;-35
2022/12/14 06:40:35;;;;;;;19.30;7.82;;;-5.50;99.90;;;;;;5008176;28;20490;-39
2022/12/14 06:43:01;;;;;;;17.98;8.18;;;-5.50;99.90;;;;;;5009199;28;20072;-38
2022/12/14 06:45:27;;;;;;;20.17;8.23;;;-5.50;99.90;;;;;;5008669;28;20038;-34
2022/12/14 06:47:53;;;;;;;19.98;8.10;;;-5.50;99.90;;;;;;5005826;28;20041;-34
2022/12/14 06:50:19;;;;;;;18.80;7.45;;;-5.60;99.90;;;;;;5011467;28;20560;-34
2022/12/14 06:52:49;;;;;;;20.08;7.40;;;-5.60;99.90;;;;;;5014048;28;20034;-34
2022/12/14 06:55:14;;;;;;;18.38;7.88;;;-5.60;99.90;;;;;;5005755;28;20106;-36
2022/12/14 06:57:40;;;;;;;17.50;7.07;;;-5.70;99.90;;;;;;5004807;28;20125;-37
2022/12/14 07:00:08;;;;;;;16.70;7.03;;;-5.70;99.90;;;;;;5006464;28;20500;-37
2022/12/14 07:02:34;;;;;;;19.67;7.32;;;-5.70;99.90;;;;;;5012250;28;20120;-35
2022/12/14 07:05:00;;;;;;;15.82;6.78;;;-5.80;99.90;;;;;;5005565;28;20157;-35
2022/12/14 07:07:25;;;;;;;17.65;7.18;;;-5.80;99.90;;;;;;5011299;28;20069;-35
2022/12/14 07:09:51;;;;;;;21.20;8.57;;;-5.80;99.90;;;;;;5004300;28;20130;-35
2022/12/14 07:12:17;;;;;;;18.95;8.98;;;-5.80;99.90;;;;;;5007308;28;20486;-35
2022/12/14 07:14:42;;;;;;;20.25;8.15;;;-5.80;99.90;;;;;;5015572;28;20037;-35
2022/12/14 07:17:08;;;;;;;20.50;7.65;;;-5.80;99.90;;;;;;5004153;28;20049;-36
2022/12/14 07:19:34;;;;;;;15.18;6.53;;;-5.80;99.90;;;;;;5007380;28;20044;-35
2022/12/14 07:22:02;;;;;;;17.08;7.40;;;-5.80;99.90;;;;;;5004739;28;20569;-36
2022/12/14 07:24:29;;;;;;;19.92;7.70;;;-5.80;99.90;;;;;;5008011;28;20099;-36
2022/12/14 07:26:55;;;;;;;23.02;7.25;;;-5.80;99.90;;;;;;5002872;28;20062;-36
2022/12/14 07:29:21;;;;;;;16.48;6.82;;;-5.80;99.90;;;;;;4993772;28;20692;-36
2022/12/14 07:31:47;;;;;;;18.58;6.65;;;-5.90;99.90;;;;;;5004303;28;20044;-36
2022/12/14 07:34:13;;;;;;;17.85;6.93;;;-5.90;99.90;;;;;;4984345;28;20620;-36
2022/12/14 07:36:39;;;;;;;18.45;8.02;;;-5.90;99.90;;;;;;4988444;28;20038;-36
2022/12/14 07:39:04;;;;;;;16.33;7.07;;;-5.90;99.90;;;;;;5003200;28;20290;-37
2022/12/14 07:41:31;;;;;;;16.33;7.05;;;-6.00;99.90;;;;;;4981045;28;20498;-36
2022/12/14 07:44:00;;;;;;;17.13;7.57;;;-6.00;99.90;;;;;;4998509;28;20517;-39
2022/12/14 07:46:27;;;;;;;20.15;8.23;;;-6.00;99.90;;;;;;5000472;28;20038;-38
2022/12/14 07:48:55;;;;;;;18.25;7.40;;;-6.00;99.90;;;;;;5002369;28;20069;-35
2022/12/14 07:51:24;;;;;;;16.88;7.18;;;-6.00;99.90;;;;;;4999982;28;20791;-35
2022/12/14 07:53:50;;;;;;;17.25;7.68;;;-6.10;99.90;;;;;;5001346;28;20797;-36
2022/12/14 07:56:19;;;;;;;19.85;8.88;;;-6.10;99.90;;;;;;4988553;28;20060;-36
2022/12/14 07:58:44;;;;;;;19.67;8.45;;;-6.10;99.90;;;;;;5003866;28;20087;-36
2022/12/14 08:01:17;;;;;;;22.45;8.38;;;-6.10;99.90;;;;;;5003831;28;20034;-37
2022/12/14 08:03:48;;;;;;;18.50;6.82;;;-6.00;99.90;;;;;;5002037;28;20055;-37
2022/12/14 08:06:15;;;;;;;22.67;8.43;;;-6.00;99.90;;;;;;4999538;28;20411;-37
2022/12/14 08:08:41;;;;;;;17.45;7.72;;;-6.00;99.90;;;;;;5000180;28;20161;-36
2022/12/14 08:11:08;;;;;;;18.42;7.55;;;-6.00;99.90;;;;;;5005126;28;20038;-36
2022/12/14 08:13:34;;;;;;;22.02;9.23;;;-6.00;99.90;;;;;;5002734;28;20048;-36
2022/12/14 08:16:08;;;;;;;20.90;7.80;;;-6.00;99.90;;;;;;4999731;28;20060;-37
2022/12/14 08:18:35;;;;;;;18.73;7.80;;;-6.00;99.90;;;;;;4998181;28;20034;-36
2022/12/14 08:21:03;;;;;;;18.42;8.65;;;-6.00;99.90;;;;;;5001246;28;20038;-36
2022/12/14 08:23:29;;;;;;;19.35;7.70;;;-6.00;99.90;;;;;;5003130;28;20092;-36
2022/12/14 08:25:57;;;;;;;16.52;7.57;;;-6.00;99.90;;;;;;5000122;28;20050;-36
2022/12/14 08:28:23;;;;;;;21.00;8.82;;;-6.00;99.90;;;;;;4985751;28;20076;-36
2022/12/14 08:30:49;;;;;;;19.77;8.80;;;-6.00;99.90;;;;;;4998354;28;20095;-36
2022/12/14 08:33:15;;;;;;;20.00;7.93;;;-6.00;99.90;;;;;;5001069;28;20046;-37
2022/12/14 08:35:41;;;;;;;17.83;7.22;;;-6.00;99.90;;;;;;5007831;28;20049;-37
2022/12/14 08:38:07;;;;;;;18.33;7.85;;;-6.00;99.90;;;;;;4977026;28;20407;-37
2022/12/14 08:40:36;;;;;;;25.27;9.05;;;-5.90;99.90;;;;;;5005680;28;20050;-37
2022/12/14 08:43:03;;;;;;;18.63;7.47;;;-5.90;99.90;;;;;;5011308;28;20045;-37
2022/12/14 08:45:28;;;;;;;25.23;9.88;;;-5.90;99.90;;;;;;5031584;28;20036;-36
2022/12/14 08:47:58;;;;;;;23.08;8.25;;;-5.90;99.90;;;;;;5007054;28;20049;-37
2022/12/14 08:50:25;;;;;;;23.25;9.55;;;-5.90;99.90;;;;;;5016061;28;20088;-38
2022/12/14 08:52:51;;;;;;;24.25;9.57;;;-5.90;99.90;;;;;;5024272;28;20267;-37
2022/12/14 08:55:19;;;;;;;25.90;9.32;;;-5.90;99.90;;;;;;5017387;28;20584;-37
2022/12/14 08:57:44;;;;;;;19.48;8.43;;;-5.80;99.90;;;;;;5019583;28;20482;-37
2022/12/14 09:00:11;;;;;;;21.45;9.23;;;-5.80;99.90;;;;;;5012128;28;20077;-37
2022/12/14 09:02:37;;;;;;;20.42;8.23;;;-5.70;99.90;;;;;;5025687;28;20640;-37
2022/12/14 09:05:03;;;;;;;24.73;9.52;;;-5.70;99.90;;;;;;5022070;28;20045;-37
2022/12/14 09:07:29;;;;;;;19.90;7.97;;;-5.70;99.90;;;;;;5029646;28;20037;-38
2022/12/14 09:09:55;;;;;;;17.90;7.20;;;-5.70;99.90;;;;;;5021302;28;20062;-38
2022/12/14 09:12:22;;;;;;;21.10;8.82;;;-5.60;99.90;;;;;;5029705;28;20033;-37
2022/12/14 09:14:48;;;;;;;22.05;8.40;;;-5.60;99.90;;;;;;5022151;28;20123;-37
2022/12/14 09:17:17;;;;;;;21.02;7.38;;;-5.50;99.90;;;;;;5026980;28;20076;-38
2022/12/14 09:19:44;;;;;;;19.27;8.30;;;-5.40;99.90;;;;;;5011775;28;20121;-37
2022/12/14 09:22:10;;;;;;;24.67;8.35;;;-5.40;99.90;;;;;;5012630;28;20104;-37
2022/12/14 09:24:36;;;;;;;18.65;7.82;;;-5.30;99.90;;;;;;5022563;28;20494;-37
2022/12/14 09:27:02;;;;;;;18.77;7.65;;;-5.20;99.90;;;;;;5035458;28;20067;-36
2022/12/14 09:29:28;;;;;;;20.25;7.45;;;-5.20;99.90;;;;;;5042179;28;20063;-36
2022/12/14 09:31:54;;;;;;;19.15;7.45;;;-5.10;99.90;;;;;;5047656;28;20045;-37
2022/12/14 09:34:22;;;;;;;18.15;8.20;;;-5.00;99.90;;;;;;5041437;28;20051;-36
2022/12/14 09:36:48;;;;;;;19.83;8.93;;;-4.90;99.90;;;;;;5038604;28;20117;-36
2022/12/14 09:39:14;;;;;;;20.27;7.28;;;-4.80;99.90;;;;;;5040920;28;20111;-37
2022/12/14 09:41:39;;;;;;;22.63;9.13;;;-4.80;99.90;;;;;;5039817;28;20094;-36
2022/12/14 09:44:24;;;;;;;21.42;8.13;;;-4.70;99.90;;;;;;5035955;28;20041;-38
2022/12/14 09:47:01;;;;;;;17.33;7.13;;;-4.50;99.90;;;;;;5037557;28;20044;-37
2022/12/14 09:49:31;;;;;;;21.15;8.80;;;-4.50;99.90;;;;;;5035679;28;20036;-37
2022/12/14 09:52:03;;;;;;;22.30;7.80;;;-4.40;99.90;;;;;;5037306;28;20041;-37
2022/12/14 09:54:33;;;;;;;18.75;7.90;;;-4.30;99.90;;;;;;5045940;28;20063;-37
2022/12/14 09:57:07;;;;;;;19.40;8.32;;;-4.20;99.90;;;;;;5043824;28;20045;-38
2022/12/14 09:59:33;;;;;;;17.77;7.28;;;-4.10;99.90;;;;;;5040035;28;20037;-39
2022/12/14 10:02:23;;;;;;;19.85;8.25;;;-4.00;99.90;;;;;;5046305;28;20040;-39
2022/12/14 10:05:10;;;;;;;15.52;7.63;;;-3.90;99.90;;;;;;5041383;28;20465;-46
2022/12/14 10:07:39;;;;;;;16.60;7.82;;;-3.80;99.90;;;;;;5031897;28;20136;-43
2022/12/14 10:10:20;;;;;;;22.45;8.48;;;-3.80;99.90;;;;;;5044893;28;20055;-44
2022/12/14 10:13:03;;;;;;;30.98;8.68;;;-3.70;99.90;;;;;;5043770;28;20139;-43
2022/12/14 10:15:41;;;;;;;23.10;8.48;;;-3.60;99.90;;;;;;5043661;28;20614;-40
2022/12/14 10:18:16;;;;;;;18.45;7.32;;;-3.60;99.90;;;;;;5036715;28;20036;-47
2022/12/14 10:20:51;;;;;;;18.63;7.82;;;-3.50;99.90;;;;;;5045371;28;20033;-47
2022/12/14 10:23:20;;;;;;;19.65;8.15;;;-3.40;99.90;;;;;;5045158;28;20479;-41
2022/12/14 10:25:49;;;;;;;18.00;7.60;;;-3.30;99.90;;;;;;5044788;28;20056;-41
2022/12/14 10:28:23;;;;;;;21.27;7.63;;;-3.30;99.90;;;;;;5040209;28;20607;-39
2022/12/14 10:30:55;;;;;;;13.88;6.20;;;-3.20;99.90;;;;;;5046807;28;20044;-45
2022/12/14 10:33:25;;;;;;;20.13;7.82;;;-3.10;99.90;;;;;;5045607;28;20096;-44
2022/12/14 10:35:54;;;;;;;20.17;8.52;;;-3.00;99.90;;;;;;5045767;28;20131;-43
2022/12/14 10:38:32;;;;;;;19.23;8.13;;;-2.60;99.90;;;;;;5040142;28;20043;-43
2022/12/14 10:41:17;;;;;;;18.35;8.10;;;-2.00;99.90;;;;;;5044847;28;20038;-43
2022/12/14 10:43:59;;;;;;;20.27;8.70;;;-1.20;99.90;;;;;;5042232;28;20131;-44
2022/12/14 10:46:50;;;;;;;17.23;7.47;;;-0.30;99.90;;;;;;5047253;28;20037;-38
2022/12/14 10:49:44;;;;;;;18.05;8.60;;;0.40;99.90;;;;;;5029849;28;20041;-38
2022/12/14 10:52:17;;;;;;;19.05;7.65;;;1.10;99.90;;;;;;5032825;28;20126;-38
2022/12/14 10:54:48;;;;;;;19.00;8.30;;;1.50;99.90;;;;;;5041259;28;20049;-40
2022/12/14 10:57:27;;;;;;;19.73;7.45;;;1.80;99.50;;;;;;5040827;28;20164;-39
2022/12/14 10:59:54;;;;;;;18.33;7.30;;;;;;;;;;5043667;28;20037;-37
2022/12/14 11:02:23;;;;;;;18.33;8.38;;;2.50;99.60;;;;;;5044105;28;20040;-38
2022/12/14 11:04:59;;;;;;;20.77;9.45;;;2.70;96.90;;;;;;5049895;28;20147;-38
2022/12/14 11:07:32;;;;;;;18.17;7.72;;;3.10;99.20;;;;;;5036616;28;20045;-38
2022/12/14 11:10:17;;;;;;;16.88;7.30;;;;;;;;;;5040528;28;20048;-40
2022/12/14 11:12:58;;;;;;;18.27;8.18;;;3.40;93.60;;;;;;5044044;28;20579;-40
2022/12/14 11:15:40;;;;;;;18.67;7.90;;;3.50;93.40;;;;;;5044480;28;20036;-41
2022/12/14 11:18:27;;;;;;;16.38;8.27;;;3.70;93.00;;;;;;5049234;28;20040;-39
2022/12/14 11:21:04;;;;;;;14.43;6.82;;;3.90;91.90;;;;;;5042542;28;20033;-40
2022/12/14 11:23:39;;;;;;;14.00;6.82;;;4.00;91.70;;;;;;5036374;28;20618;-38
2022/12/14 11:26:28;;;;;;;16.33;7.47;;;4.20;91.40;;;;;;5019862;28;20095;-39
2022/12/14 11:28:56;;;;;;;17.83;7.95;;;4.40;90.70;;;;;;5019203;28;20069;-38
2022/12/14 11:31:29;;;;;;;16.52;7.82;;;4.50;90.70;;;;;;5017668;28;20449;-39
2022/12/14 11:33:57;;;;;;;18.73;7.88;;;4.70;91.20;;;;;;5016437;28;20132;-39
2022/12/14 11:36:28;;;;;;;19.50;9.27;;;4.90;91.20;;;;;;5017871;28;20140;-41
2022/12/14 11:39:19;;;;;;;19.13;9.32;;;5.00;90.50;;;;;;5014368;28;20128;-39
2022/12/14 11:41:52;;;;;;;18.58;9.05;;;5.10;91.10;;;;;;5020039;28;20037;-38
2022/12/14 11:44:17;;;;;;;17.83;9.02;;;5.30;91.50;;;;;;5017171;28;20033;-38
2022/12/14 11:46:56;;;;;;;19.52;10.27;;;5.40;91.00;;;;;;5014989;28;20061;-41
2022/12/14 11:49:24;;;;;;;15.65;8.73;;;5.60;90.90;;;;;;5017112;28;20494;-42
2022/12/14 11:52:18;;;;;;;21.50;9.13;;;5.80;91.00;;;;;;5015655;28;20059;-37
2022/12/14 11:55:05;;;;;;;21.55;9.93;;;6.00;89.60;;;;;;5006561;28;20057;-38
2022/12/14 11:57:41;;;;;;;18.60;9.57;;;6.10;90.30;;;;;;5008476;28;20067;-39
2022/12/14 12:00:29;;;;;;;20.15;9.52;;;6.10;89.10;;;;;;5010148;28;20038;-39
2022/12/14 12:03:01;;;;;;;18.42;9.30;;;6.30;88.40;;;;;;5017887;28;20553;-40
2022/12/14 12:05:31;;;;;;;16.08;9.02;;;6.40;88.50;;;;;;5016031;28;20142;-38
2022/12/14 12:07:59;;;;;;;18.20;9.38;;;6.40;86.20;;;;;;5022361;28;20044;-38
2022/12/14 12:10:43;;;;;;;20.00;8.80;;;6.60;85.30;;;;;;5017365;28;20049;-38
2022/12/14 12:13:20;;;;;;;16.73;9.50;;;6.70;85.50;;;;;;5017623;28;20037;-38
2022/12/14 12:15:51;;;;;;;18.38;9.85;;;6.90;86.40;;;;;;5020848;28;20132;-38
2022/12/14 12:18:35;;;;;;;20.50;9.95;;;7.20;90.90;;;;;;5021625;28;20112;-38
2022/12/14 12:21:11;;;;;;;17.45;9.25;;;7.30;90.90;;;;;;5022789;28;20052;-38
2022/12/14 12:23:39;;;;;;;21.17;10.15;;;7.50;82.60;;;;;;5024911;28;20072;-38
2022/12/14 12:26:24;;;;;;;19.35;8.52;;;7.80;83.50;;;;;;5021889;28;20080;-38
2022/12/14 12:29:05;;;;;;;16.30;8.82;;;7.90;78.10;;;;;;5024065;28;20090;-38
2022/12/14 12:31:37;;;;;;;15.65;8.45;;;8.00;77.70;;;;;;5028390;28;20042;-37
2022/12/14 12:34:11;;;;;;;16.30;9.18;;;8.10;77.30;;;;;;5026046;28;20045;-38
2022/12/14 12:36:38;;;;;;;16.45;8.45;;;8.30;77.60;;;;;;5024532;28;20375;-38
2022/12/14 12:39:14;;;;;;;17.00;8.38;;;8.40;79.00;;;;;;5024718;28;20038;-41
2022/12/14 12:41:51;;;;;;;16.40;8.75;;;8.60;79.00;;;;;;5025422;28;20111;-44
2022/12/14 12:44:55;;;;;;;15.80;8.20;;;8.70;77.70;;;;;;5028499;28;20042;-41
2022/12/14 12:47:33;;;;;;;16.33;7.97;;;9.00;76.10;;;;;;5023406;28;20064;-37
2022/12/14 12:50:11;;;;;;;14.38;8.55;;;9.20;77.20;;;;;;5020091;28;20046;-44
2022/12/14 12:52:53;;;;;;;15.10;8.38;;;9.30;74.70;;;;;;5024573;28;20048;-45
2022/12/14 12:55:21;;;;;;;14.95;8.35;;;9.30;72.10;;;;;;5028072;28;20486;-43
2022/12/14 12:57:52;;;;;;;16.10;8.70;;;9.40;75.20;;;;;;5021417;28;20107;-43
2022/12/14 13:00:26;;;;;;;16.50;9.23;;;9.50;74.70;;;;;;5014571;28;20029;-45
2022/12/14 13:03:00;;;;;;;14.18;8.48;;;9.50;72.80;;;;;;5022445;28;20369;-48
2022/12/14 13:05:29;;;;;;;15.30;9.13;;;9.40;71.30;;;;;;5021395;28;20738;-44
2022/12/14 13:07:57;;;;;;;16.63;9.00;;;9.10;70.00;;;;;;5028534;28;20033;-46
2022/12/14 13:10:34;;;;;;;15.77;8.70;;;8.50;70.40;;;;;;5023348;28;20037;-45
2022/12/14 13:13:11;;;;;;;13.93;8.00;;;8.40;72.00;;;;;;5020091;28;20518;-43